Reportages photos

Inscriptions en ligne

Connexion

10Km

10 KM FOULEES MARCKOISES du 29/10/17 (Reelle 10)
Rang Dossard Nom Prénom Temps Cat Rang Cat Ecart Ecart Cat Club Vitesse Km/h Temps au Km
1 1 PRUVOT YOHANN 00:31:51 SEM 1 00:00:00 00:00:00 AS MARCK 18,838 03:11
2 131 SCHOONHEERE PASCAL 00:31:59 V1M 1 00:00:08 00:00:00 S/L US DUNKERQUE 18,760 03:12
3 2 MAES paul 00:33:09 SEM 2 00:01:18 00:01:18 AS MARCK 18,100 03:19
4 4 VRAUNAT nicolas 00:33:19 SEM 3 00:01:28 00:01:28 AS MARCK 18,009 03:20
5 301 HOLARD MAXIMILIEN 00:34:05 SEM 4 00:02:14 00:02:14 EMA 17,604 03:25
6 223 FORATIER quentin 00:34:15 ESM 1 00:02:24 00:00:00 OLYMPIQUE GRANDE-SYNTHE ATHLE 17,518 03:25
7 113 MATRINGHEN tony 00:34:31 SEM 5 00:02:40 00:02:40 Triathlon Club Boulonnais 17,383 03:27
8 90 DELVALLEE Alexandre 00:35:02 SEM 6 00:03:11 00:03:11 AC OUTREAU 17,127 03:30
9 253 RINGOT BORIS 00:35:07 SEM 7 00:03:16 00:03:16 AS MARCK 17,086 03:31
10 186 CLABAUX Alexis 00:35:24 ESM 2 00:03:33 00:01:09 PATRIOTES CROSS DE GUINES 16,949 03:32
11 250 AZIZ IMMOUNI ABDEL 00:35:48 V1M 2 00:03:57 00:03:49 - 16,760 03:35
12 150 FOURRIER Vincent 00:36:08 SEM 8 00:04:17 00:04:17 - 16,605 03:37
13 257 SBARDELLA FRANCOIS 00:36:18 SEM 9 00:04:27 00:04:27 Gravelines Triathlon 16,529 03:38
14 155 PRUVOT romain 00:36:20 SEM 10 00:04:29 00:04:29 Touquet Opale Athlétisme 16,514 03:38
15 296 ETIENNE FRANCOIS 00:36:49 ESM 3 00:04:58 00:02:34 - 16,297 03:41
16 83 PECQUEUX Lucas 00:37:07 ESM 4 00:05:16 00:02:52 Triathlon Club Boulonnais 16,165 03:43
17 258 DEZEGUE DANY 00:37:10 SEM 11 00:05:19 00:05:19 A.S. MARCK 16,143 03:43
18 274 BOUCHER SAMUEL 00:37:11 V1M 3 00:05:20 00:05:12 ARTOIS ATHLETISME 16,136 03:43
19 114 DAENINCK Benoit 00:37:12 SEM 12 00:05:21 00:05:21 LYS CALAIS TRIATHLON 16,129 03:43
20 111 DUMONT Alexandre 00:37:16 SEM 13 00:05:25 00:05:25 - 16,100 03:44
21 193 MAEREL Loic 00:37:28 SEM 14 00:05:37 00:05:37 PATRIOTES CROSS DE GUINES 16,014 03:45
22 167 DOCQUOIS FREDERIC 00:37:35 V1M 4 00:05:44 00:05:36 - 15,965 03:46
23 157 PRUDHOMME GEORGES 00:37:51 V2M 1 00:06:00 00:00:00 COURIR DANS LE LUMBROIS 15,852 03:47
24 12 PILLEREL Christophe 00:37:51 SEM 15 00:06:00 00:06:00 courir a gravelines 15,852 03:47
25 280 MALFOY JEREMY 00:38:15 SEM 16 00:06:24 00:06:24 AC OUTREAU 15,686 03:49
26 200 DUVIEUBOURG Nicolas 00:38:19 SEM 17 00:06:28 00:06:28 PATRIOTES CROSS DE GUINES 15,659 03:50
27 153 SENECHAL sebastien 00:38:23 V1M 5 00:06:32 00:06:24 AC OUTREAU 15,632 03:50
28 192 DUCROCQ linda 00:38:25 SEF 1 00:06:34 00:00:00 PATRIOTES CROSS DE GUINES 15,618 03:51
29 209 JODIN Corentin 00:38:30 ESM 5 00:06:39 00:04:15 AC OUTREAU 15,584 03:51
30 307 DELBECQUE VINCENT 00:38:34 SEM 18 00:06:43 00:06:43 LYS CALAIS TRIATHLON 15,557 03:51
31 251 RICOUART GERARD 00:38:34 SEM 19 00:06:43 00:06:43 - 15,557 03:51
32 145 LEHON Ludovic 00:38:36 SEM 20 00:06:45 00:06:45 AC OUTREAU 15,544 03:52
33 228 HERMET luc 00:38:38 V1M 6 00:06:47 00:06:39 AS CULTURELLE ARC INTERNATIONALE 15,531 03:52
34 315 LANOY STEPHANE 00:38:39 V1M 7 00:06:48 00:06:40 AC OUTREAU 15,524 03:52
35 255 FAIDHERBE LUCIE 00:38:43 SEF 2 00:06:52 00:00:18 C BILLY MONTIGNY 15,497 03:52
36 77 BLOQUET Stanislas 00:38:47 V1M 8 00:06:56 00:06:48 AC OUTREAU 15,471 03:53
37 275 RIFFLART BENOIT 00:38:50 SEM 21 00:06:59 00:06:59 TCM 62 15,451 03:53
38 277 DAMBREVILLE BENJAMIN 00:39:02 ESM 6 00:07:11 00:04:47 AC OUTREAU 15,371 03:54
39 76 SIFANTUS Thomas 00:39:12 SEM 22 00:07:21 00:07:21 OLYMPIQUE GRANDE-SYNTHE ATHLE 15,306 03:55
40 224 LOUIS nicolas 00:39:13 SEM 23 00:07:22 00:07:22 - 15,300 03:55
41 182 LEDEZ jeremy 00:39:14 SEM 24 00:07:23 00:07:23 BOULOGNE SUR MER AC 15,293 03:55
42 126 TISSERAND Thibaut 00:39:22 ESM 7 00:07:31 00:05:07 - 15,241 03:56
43 202 ZULMEA Devy 00:39:24 V1M 9 00:07:33 00:07:25 PATRIOTES CROSS DE GUINES 15,228 03:56
44 146 BARBE STEPHANE 00:39:27 V1M 10 00:07:36 00:07:28 marckathlon 15,209 03:57
45 256 RINGOT CEDRIC 00:39:34 SEM 25 00:07:43 00:07:43 - 15,164 03:57
46 174 COUPIN Franck 00:39:35 SEM 26 00:07:44 00:07:44 - 15,158 03:58
47 187 FLAHAUT Daniel 00:39:37 V1M 11 00:07:46 00:07:38 PATRIOTES CROSS DE GUINES 15,145 03:58
48 151 LESCIEUX christian 00:39:40 V1M 12 00:07:49 00:07:41 - 15,126 03:58
49 45 PIDOU Antoine 00:39:43 SEM 27 00:07:52 00:07:52 - 15,107 03:58
50 289 LETITRE BRUNO 00:39:44 SEM 28 00:07:53 00:07:53 AC OUTREAU 15,101 03:58
51 3 LAMIRAND aline 00:39:44 SEF 3 00:07:53 00:01:19 AS MARCK 15,101 03:58
52 268 LEBLOND GUILLAUME 00:39:46 SEM 29 00:07:55 00:07:55 - 15,088 03:59
53 330 LEFEBVRE LUCIEN 00:39:46 SEM 30 00:07:55 00:07:55 - 15,088 03:59
54 283 DEWAELE GUILLAUME 00:39:47 SEM 31 00:07:56 00:07:56 JC WORMHOUT 15,082 03:59
55 181 DUFOUR FABRICE 00:39:48 V1M 13 00:07:57 00:07:49 BOULOGNE SUR MER AC 15,075 03:59
56 225 DELARACE JEAN MARC 00:39:55 V2M 2 00:08:04 00:02:04 S/L AC AUDOMAROIS 15,031 04:00
57 279 DELARACE MARC 00:39:55 SEM 32 00:08:04 00:08:04 - 15,031 04:00
58 48 BEAUVOIS Christophe 00:39:56 SEM 33 00:08:05 00:08:05 BOULOGNE SUR MER AC 15,025 04:00
59 159 SAUVAGE FREDERIC 00:39:56 V1M 14 00:08:05 00:07:57 - 15,025 04:00
60 93 MARCHIENNES Fabien 00:39:58 SEM 34 00:08:07 00:08:07 AS MARCK 15,013 04:00
61 205 DUCROCQ Arnaud 00:39:58 V1M 15 00:08:07 00:07:59 PATRIOTES CROSS DE GUINES 15,013 04:00
62 147 LEFRANC Sebastien 00:40:00 SEM 35 00:08:09 00:08:09 - 15,000 04:00
63 222 VANDENBROUCKE alexis 00:40:01 CAM 1 00:08:10 00:00:00 arc sports loisirs 14,994 04:00
64 196 LEMAITRE Nicolas 00:40:02 V1M 16 00:08:11 00:08:03 PATRIOTES CROSS DE GUINES 14,988 04:00
65 87 BARRAS Julien 00:40:02 SEM 36 00:08:11 00:08:11 AS MARCK 14,988 04:00
66 106 CABOCHE Christophe 00:40:02 V1M 17 00:08:11 00:08:03 AS MARCK 14,988 04:00
67 28 SERGENT Guillaume 00:40:04 SEM 37 00:08:13 00:08:13 - 14,975 04:00
68 78 ANOT Thierry 00:40:06 SEM 38 00:08:15 00:08:15 SERVINS ATHLETIC CLUB 14,963 04:01
69 328 DUMONT ALEXIS 00:40:11 SEM 39 00:08:20 00:08:20 - 14,932 04:01
70 295 PAUCHET THOMAS 00:40:15 CAM 2 00:08:24 00:00:14 WIMEREUX RUNNING CLUB 14,907 04:02
71 201 DUCLOY Eddy 00:40:16 V1M 18 00:08:25 00:08:17 PATRIOTES CROSS DE GUINES 14,901 04:02
72 5 ROELS pascal 00:40:20 V1M 19 00:08:29 00:08:21 AS MARCK 14,876 04:02
73 211 GOURNAY DAVID 00:40:20 V1M 20 00:08:29 00:08:21 AC OUTREAU 14,876 04:02
74 246 HIVART RAPHAEL 00:40:30 SEM 40 00:08:39 00:08:39 STADE OLYMPIQUE CALAIS ATHLETISME 14,815 04:03
75 239 RINGOT MICKAEL 00:40:36 SEM 41 00:08:45 00:08:45 STADE OLYMPIQUE CALAIS ATHLETISME 14,778 04:04
76 98 MANTEZ Olivier 00:40:48 V2M 3 00:08:57 00:02:57 AS MARCK 14,706 04:05
77 297 ROBERVAL GAUTIER 00:41:02 JUM 1 00:09:11 00:00:00 - 14,622 04:06
78 305 HERMEL THIERRY 00:41:06 V1M 21 00:09:15 00:09:07 - 14,599 04:07
79 184 ALLAN Sebastien 00:41:09 V1M 22 00:09:18 00:09:10 PATRIOTES CROSS DE GUINES 14,581 04:07
80 261 GIOVALE DAMIEN 00:41:09 SEM 42 00:09:18 00:09:18 - 14,581 04:07
81 142 CUVELIER Cédric 00:41:14 SEM 43 00:09:23 00:09:23 Villeneuve d'Ascq Triathlon 14,551 04:07
82 140 QUIQUET Christophe 00:41:17 V2M 4 00:09:26 00:03:26 WIMEREUX RUNNING CLUB 14,534 04:08
83 69 BOCQUET PATRICK 00:41:17 V3M 1 00:09:26 00:00:00 PATRIOTES CROSS DE GUINES 14,534 04:08
84 263 BADON EMMANUEL 00:41:24 V1M 23 00:09:33 00:09:25 AC OUTREAU 14,493 04:08
85 197 ROBERT emmanuel 00:41:32 V1M 24 00:09:41 00:09:33 AC OUTREAU 14,446 04:09
86 86 HARDY Fabien 00:41:36 V2M 5 00:09:45 00:03:45 AS MARCK 14,423 04:10
87 91 GAUTIER Alain 00:41:38 V1M 25 00:09:47 00:09:39 AS MARCK 14,412 04:10
88 292 BABIN LORY 00:41:50 SEF 4 00:09:59 00:03:25 - 14,343 04:11
89 271 YVONNOU SABRINA 00:41:59 SEF 5 00:10:08 00:03:34 ARTOIS ATHLETISME 14,291 04:12
90 125 BERDIN VALERIE 00:42:05 V1F 1 00:10:14 00:00:00 AS MARCK 14,257 04:13
91 107 HIELLE Antoine 00:42:05 SEM 44 00:10:14 00:10:14 AS MARCK 14,257 04:13
92 70 FLOURET stephanie 00:42:22 V1F 2 00:10:31 00:00:17 AC OUTREAU 14,162 04:14
93 135 MOUSSAY laurent 00:42:23 V1M 26 00:10:32 00:10:24 AS MARCK 14,157 04:14
94 103 CADET Jean Philippe 00:42:26 V1M 27 00:10:35 00:10:27 AS MARCK 14,140 04:15
95 215 MERLIN Matthieu 00:42:28 SEM 45 00:10:37 00:10:37 - 14,129 04:15
96 288 CHEUVA LOIC 00:42:30 V1M 28 00:10:39 00:10:31 WIMEREUX RUNNING CLUB 14,118 04:15
97 247 LE LAN CEDRIC 00:42:31 V1M 29 00:10:40 00:10:32 - 14,112 04:15
98 183 ROUTIER Maud 00:42:33 SEF 6 00:10:42 00:04:08 PATRIOTES CROSS DE GUINES 14,101 04:15
99 291 BABIN NICOLAS 00:42:35 V1M 30 00:10:44 00:10:36 - 14,090 04:16
100 234 SAGOT philippe 00:42:53 V2M 6 00:11:02 00:05:02 AS CULTURELLE ARC INTERNATIONALE 13,991 04:17
101 314 STOPIN THEO 00:42:57 ESM 8 00:11:06 00:08:42 - 13,970 04:18
102 185 BUY Jacques 00:43:01 V2M 7 00:11:10 00:05:10 PATRIOTES CROSS DE GUINES 13,948 04:18
103 138 TOWNSEND Cindy 00:43:05 SEF 7 00:11:14 00:04:40 - 13,926 04:19
104 88 MASCOT David 00:43:09 V1M 31 00:11:18 00:11:10 AS MARCK 13,905 04:19
105 23 LAMBERT Sébastien 00:43:17 V1M 32 00:11:26 00:11:18 - 13,862 04:20
106 154 CORDENIER PHILIPPE 00:43:20 V3M 2 00:11:29 00:02:03 - 13,846 04:20
107 267 WATBLED NICOLAS 00:43:23 CAM 3 00:11:32 00:03:22 LYS CALAIS TRIATHLON 13,830 04:20
108 242 PERSYN cyril 00:43:24 SEM 46 00:11:33 00:11:33 - 13,825 04:20
109 75 LENSEN eric 00:43:29 V1M 33 00:11:38 00:11:30 pass running 13,798 04:21
110 236 BEAUCAMP JOSE 00:43:31 V2M 8 00:11:40 00:05:40 STADE OLYMPIQUE CALAIS ATHLETISME 13,788 04:21
111 290 LIENARD AMANDINE 00:43:33 CAF 1 00:11:42 00:00:00 WIMEREUX RUNNING CLUB 13,777 04:21
112 312 TIRMARCHE ANTOINE 00:43:34 ESM 9 00:11:43 00:09:19 - 13,772 04:21
113 152 VERMEULEN Antoine 00:43:37 SEM 47 00:11:46 00:11:46 - 13,756 04:22
114 238 RAULT FRANCOIS 00:43:48 V2M 9 00:11:57 00:05:57 STADE OLYMPIQUE CALAIS ATHLETISME 13,699 04:23
115 287 GIGADEN MATHILDE 00:43:49 V1F 3 00:11:58 00:01:44 - 13,693 04:23
116 190 BATILLIOT Dominique 00:43:53 V2F 1 00:12:02 00:00:00 PATRIOTES CROSS DE GUINES 13,673 04:23
117 191 EHLEN Thomas 00:44:02 CAM 4 00:12:11 00:04:01 PATRIOTES CROSS DE GUINES 13,626 04:24
118 73 DEVIGNE Benoit 00:44:02 SEM 48 00:12:11 00:12:11 - 13,626 04:24
119 43 LABOURE ROMAIN 00:44:05 SEM 49 00:12:14 00:12:14 LES AMIS CYCLOS DE L'ARDRESIS 13,611 04:25
120 171 BAHEU PATRICK 00:44:06 V3M 3 00:12:15 00:02:49 - 13,605 04:25
121 259 DEMAN FABRICE 00:44:08 SEM 50 00:12:17 00:12:17 - 13,595 04:25
122 243 CRETEL laurent 00:44:10 V1M 34 00:12:19 00:12:11 - 13,585 04:25
123 270 THOMAS OLIVIER 00:44:12 V1M 35 00:12:21 00:12:13 ESQUEL'RUN 13,575 04:25
124 97 TREMBLAY Philippe 00:44:12 V2M 10 00:12:21 00:06:21 - 13,575 04:25
125 180 MALBEC Kevin 00:44:13 SEM 51 00:12:22 00:12:22 - 13,570 04:25
126 276 DAMOTA ANGELINA 00:44:17 ESF 1 00:12:26 00:00:00 LYS CALAIS TRIATHLON 13,549 04:26
127 266 SERGEANT CLEMENT 00:44:17 SEM 52 00:12:26 00:12:26 - 13,549 04:26
128 308 LEGROS MATHIEU 00:44:18 SEM 53 00:12:27 00:12:27 - 13,544 04:26
129 104 HAMY Maxence 00:44:25 ESM 10 00:12:34 00:10:10 AS MARCK 13,508 04:27
130 214 CRESSON karl 00:44:26 V1M 36 00:12:35 00:12:27 - 13,503 04:27
131 85 DUBOIS TONY 00:44:27 V1M 37 00:12:36 00:12:28 AS MARCK 13,498 04:27
132 156 CUGNY Vincent 00:44:46 SEM 54 00:12:55 00:12:55 - 13,403 04:29
133 22 DUVILLARD Damien 00:44:47 SEM 55 00:12:56 00:12:56 Ac capellois 13,398 04:29
134 317 PETOLAS VALENTIN 00:44:48 SEM 56 00:12:57 00:12:57 - 13,393 04:29
135 286 FLAJOLLET DIDIER 00:44:49 V1M 38 00:12:58 00:12:50 - 13,388 04:29
136 160 NAJMI AICHA 00:44:54 V1F 4 00:13:03 00:02:49 - 13,363 04:29
137 213 DOYER ERIC 00:44:57 V1M 39 00:13:06 00:12:58 - 13,348 04:30
138 38 LUCAS jean henri 00:45:01 SEM 57 00:13:10 00:13:10 Gravelines Triathlon 13,328 04:30
139 235 VANDENBROUCKE nicolas 00:45:06 V1M 40 00:13:15 00:13:07 AS CULTURELLE ARC INTERNATIONALE 13,304 04:31
140 327 HAULTCOEUR CEDRIC 00:45:07 SEM 58 00:13:16 00:13:16 - 13,299 04:31
141 144 DEVYS Nicolas 00:45:12 SEM 59 00:13:21 00:13:21 - 13,274 04:31
142 24 FAIT jonathan 00:45:19 SEM 60 00:13:28 00:13:28 STADE OLYMPIQUE CALAIS ATHLETISME 13,240 04:32
143 51 TROCME THIERRY 00:45:19 V2M 11 00:13:28 00:07:28 - 13,240 04:32
144 175 CURE JULIEN 00:45:27 SEM 61 00:13:36 00:13:36 - 13,201 04:33
145 329 MALLIOPOULOS XAVIER 00:45:27 V2M 12 00:13:36 00:07:36 BERCK A C O 13,201 04:33
146 199 BIRO Soren 00:45:36 SEM 62 00:13:45 00:13:45 PATRIOTES CROSS DE GUINES 13,158 04:34
147 132 BEKKAÏ benoit 00:45:39 SEM 63 00:13:48 00:13:48 AS MARCK 13,143 04:34
148 272 DESCHAND BAPTISTE 00:45:40 SEM 64 00:13:49 00:13:49 - 13,139 04:34
149 316 ROBACHE JULIEN 00:45:41 SEM 65 00:13:50 00:13:50 - 13,134 04:34
150 179 GRENON Cyril 00:45:41 SEM 66 00:13:50 00:13:50 - 13,134 04:34
151 129 CREMER KRZESZOWSKA Francisco 00:45:42 V1M 41 00:13:51 00:13:43 - 13,129 04:34
152 230 LEGRAND christophe 00:45:53 V1M 42 00:14:02 00:13:54 AS CULTURELLE ARC INTERNATIONALE 13,077 04:35
153 35 DEVOS Fabrice 00:45:58 V1M 43 00:14:07 00:13:59 COURBEVOIE ATHLETISME CLUB ET LOISIR 13,053 04:36
154 318 CRESSON XAVIER 00:46:01 V2M 13 00:14:10 00:08:10 AS MARCK 13,039 04:36
155 158 VANHERSECKE AMANDINE 00:46:04 SEF 8 00:14:13 00:07:39 - 13,025 04:36
156 165 HANON JEAN-PIERRE 00:46:05 V3M 4 00:14:14 00:04:48 - 13,020 04:37
157 285 TILLIER LUDOVIC 00:46:06 V1M 44 00:14:15 00:14:07 WIMEREUX RUNNING CLUB 13,015 04:37
158 254 DALINAL DAMIEN 00:46:07 SEM 67 00:14:16 00:14:16 - 13,010 04:37
159 216 LEMAITRE Marie 00:46:09 JUF 1 00:14:18 00:00:00 AS MARCK 13,001 04:37
160 326 VERMAEGHE NICOLAS 00:46:11 SEM 68 00:14:20 00:14:20 - 12,992 04:37
161 281 MOREL ARTHUR 00:46:13 JUM 2 00:14:22 00:05:11 - 12,982 04:37
162 56 LEFEBVRE arnaud 00:46:17 V1M 45 00:14:26 00:14:18 - 12,964 04:38
163 237 KERKOVE SEBASTIEN 00:46:24 SEM 69 00:14:33 00:14:33 STADE OLYMPIQUE CALAIS ATHLETISME 12,931 04:38
164 166 FLAHAUT FREDERIC 00:46:32 V1M 46 00:14:41 00:14:33 - 12,894 04:39
165 282 MOREL WILLY 00:46:33 V1M 47 00:14:42 00:14:34 - 12,889 04:39
166 34 PIGERRE Sylvain 00:46:33 SEM 70 00:14:42 00:14:42 - 12,889 04:39
167 27 HERBETTY MARC 00:46:35 V1M 48 00:14:44 00:14:36 - 12,880 04:40
168 74 PIDOU Aurélien 00:46:39 SEM 71 00:14:48 00:14:48 - 12,862 04:40
169 163 INGOUF NATHALIE 00:46:40 V1F 5 00:14:49 00:04:35 - 12,857 04:40
170 141 LELEU jean françois 00:46:43 V2M 14 00:14:52 00:08:52 - 12,843 04:40
171 149 PIOT benjamin 00:46:47 SEM 72 00:14:56 00:14:56 - 12,825 04:41
172 169 CAUDOUX PATRICK 00:46:48 V2M 15 00:14:57 00:08:57 - 12,821 04:41
173 168 CHOUROT LUCIEN 00:46:50 V3M 5 00:14:59 00:05:33 - 12,811 04:41
174 127 TISSERAND Xavier 00:46:51 V2M 16 00:15:00 00:09:00 - 12,807 04:41
175 119 PUJADE JULIE 00:46:52 SEF 9 00:15:01 00:08:27 AS MARCK 12,802 04:41
176 108 DUTERNE OLIVIER 00:46:55 SEM 73 00:15:04 00:15:04 - 12,789 04:41
177 173 LOQUET Ludovic 00:46:57 V2M 17 00:15:06 00:09:06 - 12,780 04:42
178 293 LIENARD ANTHONY 00:47:10 CAM 5 00:15:19 00:07:09 - 12,721 04:43
179 26 DULOT Pascaline 00:47:27 V1F 6 00:15:36 00:05:22 - 12,645 04:45
180 25 DULOT Eric 00:47:27 V2M 18 00:15:36 00:09:36 - 12,645 04:45
181 33 GOETGELUCK Arnaud 00:47:33 SEM 74 00:15:42 00:15:42 - 12,618 04:45
182 139 RIGOULET Pascal 00:47:41 V1M 49 00:15:50 00:15:42 - 12,583 04:46
183 89 LEOTY Audrey 00:47:42 SEF 10 00:15:51 00:09:17 AS MARCK 12,579 04:46
184 95 BOULANGER Liliane 00:47:45 V1F 7 00:15:54 00:05:40 AS MARCK 12,565 04:46
185 99 LAPIERRE Cathy 00:47:46 SEF 11 00:15:55 00:09:21 AS MARCK 12,561 04:47
186 136 CLERBOUT Marc 00:48:03 V2M 19 00:16:12 00:10:12 Rc blendecques 12,487 04:48
187 232 CHARLES aurelie 00:48:09 SEF 12 00:16:18 00:09:44 AS CULTURELLE ARC INTERNATIONALE 12,461 04:49
188 269 BRABANT VINCENT 00:48:23 SEM 75 00:16:32 00:16:32 AC OUTREAU 12,401 04:50
189 47 WEBBER franck 00:48:26 SEM 76 00:16:35 00:16:35 - 12,388 04:51
190 203 AUBERT Magalie 00:48:27 V1F 8 00:16:36 00:06:22 PATRIOTES CROSS DE GUINES 12,384 04:51
191 207 JOLY David 00:48:30 V1M 50 00:16:39 00:16:31 PATRIOTES CROSS DE GUINES 12,371 04:51
192 124 VANHOUTTE JESSY 00:48:33 SEM 77 00:16:42 00:16:42 - 12,358 04:51
193 204 LECOUFFE Amandine 00:48:38 SEF 13 00:16:47 00:10:13 PATRIOTES CROSS DE GUINES 12,337 04:52
194 120 VRAUNAT LAURA 00:48:38 SEF 14 00:16:47 00:10:13 AS MARCK 12,337 04:52
195 249 COPIN MATHILDE 00:48:42 ESF 2 00:16:51 00:04:25 - 12,320 04:52
196 240 CRETON RAPHAEL 00:48:45 V1M 51 00:16:54 00:16:46 AS MARCK 12,308 04:52
197 321 MISEROLLE MATTHIEU 00:48:51 SEM 78 00:17:00 00:17:00 - 12,282 04:53
198 310 MOUSSAY EMILIE 00:49:08 SEF 15 00:17:17 00:10:43 Gravelines Triathlon 12,212 04:55
199 96 TREMBLAY Béatrice 00:49:13 V1F 9 00:17:22 00:07:08 - 12,191 04:55
200 162 MASZOTA DARIA 00:49:13 SEF 16 00:17:22 00:10:48 - 12,191 04:55
201 115 LESOT Guillaume 00:49:14 SEM 79 00:17:23 00:17:23 - 12,187 04:55
202 17 LENGLET Sébastien 00:49:24 V1M 52 00:17:33 00:17:25 - 12,146 04:56
203 178 DECLERCQ mathieu 00:49:31 SEM 80 00:17:40 00:17:40 - 12,117 04:57
204 284 FLAJOLLET JEREMY 00:49:32 JUM 3 00:17:41 00:08:30 - 12,113 04:57
205 188 CARBONNIER Sebastien 00:49:34 V1M 53 00:17:43 00:17:35 PATRIOTES CROSS DE GUINES 12,105 04:57
206 273 PAMART LOIC 00:49:34 SEM 81 00:17:43 00:17:43 - 12,105 04:57
207 241 DEVINCK CHRISTOPHE 00:49:35 V2M 20 00:17:44 00:11:44 - 12,101 04:58
208 313 BOULANGER NICOLAS 00:49:35 SEM 82 00:17:44 00:17:44 - 12,101 04:58
209 233 BAUVAIS linda 00:49:37 SEF 17 00:17:46 00:11:12 AS CULTURELLE ARC INTERNATIONALE 12,093 04:58
210 319 COCQUEREZ HUBERT 00:49:41 SEM 83 00:17:50 00:17:50 - 12,076 04:58
211 303 DEVOS PIERRE-OLIVIER 00:49:47 V1M 54 00:17:56 00:17:48 - 12,052 04:59
212 148 CONDETTE Frédéric 00:49:50 V1M 55 00:17:59 00:17:51 AS MARCK 12,040 04:59
213 101 MEATS Antoine 00:50:01 SEM 84 00:18:10 00:18:10 AS MARCK 11,996 05:00
214 208 DENEZ Christelle 00:50:21 V2F 2 00:18:30 00:06:28 PATRIOTES CROSS DE GUINES 11,917 05:02
215 39 PICQUE Anthony 00:50:47 SEM 85 00:18:56 00:18:56 - 11,815 05:05
216 46 DEVULDER michael 00:50:50 V1M 56 00:18:59 00:18:51 - 11,803 05:05
217 322 ROBART FRANCOIS 00:51:00 V2M 21 00:19:09 00:13:09 - 11,765 05:06
218 121 VANHOUTTE Geoffrey 00:51:15 SEM 86 00:19:24 00:19:24 - 11,707 05:07
219 128 CONDETTE Jean-Luc 00:51:23 V3M 6 00:19:32 00:10:06 - 11,677 05:08
220 164 HANON LILIANE 00:51:31 V3F 1 00:19:40 00:00:00 - 11,647 05:09
221 94 BOULANGER ERIC 00:52:01 V2M 22 00:20:10 00:14:10 AS MARCK 11,535 05:12
222 298 LOGEZ ALEXANDRE 00:52:04 SEM 87 00:20:13 00:20:13 - 11,524 05:12
223 262 PREVOST VICTOR 00:52:13 V3M 7 00:20:22 00:10:56 - 11,491 05:13
224 311 GARENAUX DOMINIQUE 00:52:14 V3M 8 00:20:23 00:10:57 - 11,487 05:13
225 252 DUBOIS CEDRIC 00:52:19 SEM 88 00:20:28 00:20:28 - 11,469 05:14
226 15 LAVIEVILLE Frédéric 00:52:22 SEM 89 00:20:31 00:20:31 - 11,458 05:14
227 294 MARTIN VALENTINE 00:52:29 CAF 2 00:20:38 00:08:56 WIMEREUX RUNNING CLUB 11,432 05:15
228 110 TAHON pierre laurent 00:52:29 V1M 57 00:20:38 00:20:30 - 11,432 05:15
229 105 GORAIN Camille 00:52:52 SEF 18 00:21:01 00:14:27 AS MARCK 11,349 05:17
230 29 LELONG Stéphane 00:53:00 V1M 58 00:21:09 00:21:01 Saint Martin Athlétisme 11,321 05:18
231 229 FOURNIER christophe 00:53:02 V1M 59 00:21:11 00:21:03 AS CULTURELLE ARC INTERNATIONALE 11,314 05:18
232 231 LEGRAND nathalie 00:53:03 V1F 10 00:21:12 00:10:58 AS CULTURELLE ARC INTERNATIONALE 11,310 05:18
233 226 CRETEL LAURENCE 00:53:34 V2F 3 00:21:43 00:09:41 - 11,201 05:21
234 176 NOLLET Marc-Olivier 00:53:46 V1M 60 00:21:55 00:21:47 - 11,159 05:23
235 80 DE OLIVEIRA SANTOS François 00:54:11 V2M 23 00:22:20 00:16:20 - 11,074 05:25
236 134 PILLOT mathilda 00:54:15 JUF 2 00:22:24 00:08:06 AS MARCK 11,060 05:26
237 212 HAMY ISABELLE 00:54:19 V2F 4 00:22:28 00:10:26 - 11,046 05:26
238 177 BARDEL Patricia 00:54:23 V1F 11 00:22:32 00:12:18 - 11,033 05:26
239 278 FAUQUETTE SAMUEL 00:54:26 SEM 90 00:22:35 00:22:35 - 11,023 05:27
240 302 MERLIER ROMAIN 00:54:28 SEM 91 00:22:37 00:22:37 - 11,016 05:27
241 218 LIEVIN Nathalie 00:54:28 V2F 5 00:22:37 00:10:35 - 11,016 05:27
242 102 LEBAS Julien 00:54:29 SEM 92 00:22:38 00:22:38 AS MARCK 11,013 05:27
243 109 DESTREZ Hervé 00:54:34 V2M 24 00:22:43 00:16:43 - 10,996 05:27
244 79 DESTREZ valerie 00:54:34 V1F 12 00:22:43 00:12:29 - 10,996 05:27
245 49 LANNOY Nathalie 00:54:55 V1F 13 00:23:04 00:12:50 - 10,926 05:30
246 71 VERCOUTRE Vincent 00:54:56 SEM 93 00:23:05 00:23:05 - 10,922 05:30
247 264 RECOURT LAURENT 00:54:58 V1M 61 00:23:07 00:22:59 - 10,916 05:30
248 227 DAZIN jacqueline 00:55:16 V3F 2 00:23:25 00:03:45 AS CULTURELLE ARC INTERNATIONALE 10,856 05:32
249 112 TASSART Jean Christophe 00:55:21 V1M 62 00:23:30 00:23:22 - 10,840 05:32
250 320 NOWIK LAETITIA 00:55:22 SEF 19 00:23:31 00:16:57 MARQUISE 10,837 05:32
251 21 COGNIAUX Elodie 00:55:44 SEF 20 00:23:53 00:17:19 - 10,766 05:34
252 82 HENON Laurent 00:56:11 SEM 94 00:24:20 00:24:20 - 10,679 05:37
253 189 FAUQUETTE Laurène 00:56:29 SEF 21 00:24:38 00:18:04 - 10,623 05:39
254 309 VANDERBECQ ROMAIN 00:56:30 SEM 95 00:24:39 00:24:39 - 10,619 05:39
255 37 BEAUDEL PETER 00:56:34 V1M 63 00:24:43 00:24:35 - 10,607 05:39
256 133 GRUART adeline 00:56:40 SEF 22 00:24:49 00:18:15 AS MARCK 10,588 05:40
257 331 LEFEBVRE VALENTIN 00:56:41 SEM 96 00:24:50 00:24:50 AS MARCK 10,585 05:40
258 11 NOREL ALEXIS 00:56:48 SEM 97 00:24:57 00:24:57 Runners en Nord 10,563 05:41
259 248 HUCHIN BENJAMIN 00:56:51 SEM 98 00:25:00 00:25:00 - 10,554 05:41
260 299 CIROT JEROME 00:57:07 SEM 99 00:25:16 00:25:16 - 10,505 05:43
261 306 FEVRE EDITH 00:57:09 V2F 6 00:25:18 00:13:16 - 10,499 05:43
262 304 PIETIN LAURENT 00:57:09 V2M 25 00:25:18 00:19:18 R2MA 10,499 05:43
263 245 HERBIN VIRGINIE 00:57:15 SEF 23 00:25:24 00:18:50 - 10,480 05:43
264 244 LEFLECHE MORGANE 00:57:15 SEF 24 00:25:24 00:18:50 - 10,480 05:43
265 198 ROBERT SABINE 00:57:25 V1F 14 00:25:34 00:15:20 AC OUTREAU 10,450 05:45
266 161 MODOLO FANNY 00:58:12 V1F 15 00:26:21 00:16:07 - 10,309 05:49
267 50 PIETRZAK Céline 00:59:10 SEF 25 00:27:19 00:20:45 - 10,141 05:55
268 16 CHRETIEN Amandine 00:59:16 SEF 26 00:27:25 00:20:51 - 10,124 05:56
269 210 VANDAMME virginie 00:59:16 V1F 16 00:27:25 00:17:11 - 10,124 05:56
270 30 BERDIN Cédric 00:59:39 V1M 64 00:27:48 00:27:40 - 10,059 05:58
271 217 WIDEHEM STEPHANIE 00:59:58 V1F 17 00:28:07 00:17:53 - 10,006 06:00
272 92 MARTEL Franck 01:00:11 V2M 26 00:28:20 00:22:20 AS MARCK 9,970 06:01
273 44 BRAYELLE Estelle 01:00:11 V1F 18 00:28:20 00:18:06 Jogging Club Licquois 9,970 06:01
274 42 DEVIN Marc 01:00:29 V1M 65 00:28:38 00:28:30 - 9,920 06:03
275 31 PELLETIER Frédéric 01:01:23 V1M 66 00:29:32 00:29:24 - 9,775 06:08
276 36 MAILLARD christophe 01:02:19 V1M 67 00:30:28 00:30:20 - 9,628 06:14
277 325 GUILBERT MARIE 01:02:23 SEF 27 00:30:32 00:23:58 - 9,618 06:14
278 40 MATHIEU jean-christophe 01:02:29 V2M 27 00:30:38 00:24:38 - 9,603 06:15
279 41 MATHIEU mathilde 01:02:29 SEF 28 00:30:38 00:24:04 - 9,603 06:15
280 122 DAENS Nicolas 01:02:39 V1M 68 00:30:48 00:30:40 - 9,577 06:16
281 123 DAENS Aline 01:02:41 SEF 29 00:30:50 00:24:16 - 9,572 06:16
282 14 LEBBE Louison 01:03:21 SEF 30 00:31:30 00:24:56 - 9,471 06:20
283 13 LAVIEVILLE MarieLaure 01:03:21 SEF 31 00:31:30 00:24:56 - 9,471 06:20
284 324 DEWATTINE ALEX 01:04:32 SEM 100 00:32:41 00:32:41 - 9,298 06:27
285 265 BOIDART LANGRAND DANIELLE 01:04:52 SEF 32 00:33:01 00:26:27 - 9,250 06:29
286 323 FORENEAU GERALD 01:04:53 SEM 101 00:33:02 00:33:02 - 9,247 06:29
287 260 DESMIS ISABELLE 01:06:13 V1F 19 00:34:22 00:24:08 - 9,061 06:37
288 143 CNOCKAERT Olivia 01:06:48 V1F 20 00:34:57 00:24:43 Team gravelines 8,982 06:41
289 116 LUYSSEN Henri 01:07:30 JUM 4 00:35:39 00:26:28 - 8,889 06:45
290 81 DE OLIVEIRA SANTOS Jana 01:08:13 V2F 7 00:36:22 00:24:20 - 8,796 06:49
Novembre 2017
Lun Mar Mer Jeu Ven Sam Dim
1
2
3
4
5
6
7
8
9
10
11
12
13
14
15
16
17
18
19
20
21
22
23
24
25
27
28
29
30